createdAt,value
2023-05-05T00:02:18.435Z,1.50
2023-05-05T00:04:46.086Z,1.40
2023-05-05T00:07:13.741Z,1.43
2023-05-05T00:09:41.515Z,1.30
2023-05-05T00:12:09.451Z,1.33
2023-05-05T00:14:37.154Z,1.40
2023-05-05T00:17:06.113Z,1.40
2023-05-05T00:19:33.809Z,1.30
2023-05-05T00:22:01.411Z,1.30
2023-05-05T00:24:28.998Z,1.10
2023-05-05T00:26:56.632Z,1.20
2023-05-05T00:29:24.220Z,1.40
2023-05-05T00:31:52.486Z,1.30
2023-05-05T00:34:22.088Z,1.40
2023-05-05T00:36:50.463Z,1.33
2023-05-05T00:39:18.057Z,1.53
2023-05-05T00:41:45.875Z,1.33
2023-05-05T00:44:13.474Z,1.33
2023-05-05T00:46:43.215Z,1.50
2023-05-05T00:49:12.189Z,1.50
2023-05-05T00:51:41.334Z,1.30
2023-05-05T00:54:09.087Z,1.50
2023-05-05T00:56:37.423Z,1.50
2023-05-05T00:59:05.039Z,1.40
2023-05-05T01:01:32.772Z,1.40
2023-05-05T01:04:00.480Z,1.10
2023-05-05T01:06:42.760Z,1.53
2023-05-05T01:09:22.656Z,1.40
2023-05-05T01:11:57.764Z,1.40
2023-05-05T01:14:32.178Z,1.10
2023-05-05T01:17:04.127Z,1.40
2023-05-05T01:20:00.682Z,1.50
2023-05-05T01:22:34.893Z,1.60
2023-05-05T01:25:21.727Z,1.70
2023-05-05T01:28:00.810Z,1.60
2023-05-05T01:30:51.254Z,1.77
2023-05-05T01:33:26.061Z,1.77
2023-05-05T01:35:57.063Z,1.80
2023-05-05T01:38:33.049Z,1.60
2023-05-05T01:41:08.641Z,1.70
2023-05-05T01:43:37.996Z,1.93
2023-05-05T01:46:07.320Z,2.10
2023-05-05T01:48:36.993Z,1.63
2023-05-05T01:51:06.670Z,2.20
2023-05-05T01:53:35.208Z,2.10
2023-05-05T01:56:03.789Z,2.10
2023-05-05T01:58:33.813Z,1.77
2023-05-05T02:01:02.639Z,2.03
2023-05-05T02:03:34.077Z,2.13
2023-05-05T02:06:04.721Z,1.70
2023-05-05T02:08:33.885Z,1.87
2023-05-05T02:11:02.067Z,2.10
2023-05-05T02:13:32.402Z,1.90
2023-05-05T02:16:01.394Z,1.70
2023-05-05T02:18:35.570Z,1.67
2023-05-05T02:21:05.101Z,1.80
2023-05-05T02:23:33.591Z,1.90
2023-05-05T02:26:06.521Z,1.80
2023-05-05T02:28:40.846Z,1.80
2023-05-05T02:31:10.747Z,1.63
2023-05-05T02:33:39.652Z,1.53
2023-05-05T02:36:13.397Z,1.50
2023-05-05T02:38:54.128Z,1.83
2023-05-05T02:41:24.441Z,1.80
2023-05-05T02:43:53.092Z,2.03
2023-05-05T02:46:21.680Z,1.70
2023-05-05T02:48:49.358Z,1.70
2023-05-05T02:51:18.367Z,1.80
2023-05-05T02:53:46.310Z,1.73
2023-05-05T02:56:26.976Z,2.00
2023-05-05T02:59:04.845Z,2.10
2023-05-05T03:01:44.473Z,2.00
2023-05-05T03:04:18.257Z,1.90
2023-05-05T03:06:57.113Z,1.80
2023-05-05T03:09:32.417Z,1.93
2023-05-05T03:12:07.721Z,1.63
2023-05-05T03:14:57.020Z,1.40
2023-05-05T03:17:25.970Z,1.73
2023-05-05T03:19:53.920Z,1.90
2023-05-05T03:22:23.308Z,1.80
2023-05-05T03:24:52.316Z,1.60
2023-05-05T03:27:23.823Z,1.27
2023-05-05T03:29:52.250Z,1.60
2023-05-05T03:32:20.734Z,1.50
2023-05-05T03:34:48.534Z,1.50
2023-05-05T03:37:16.451Z,1.60
2023-05-05T03:39:45.465Z,1.40
2023-05-05T03:42:13.240Z,1.70
2023-05-05T03:44:40.919Z,1.60
2023-05-05T03:47:08.803Z,1.50
2023-05-05T03:49:38.860Z,1.63
2023-05-05T03:52:06.704Z,1.77
2023-05-05T03:54:34.423Z,1.80
2023-05-05T03:57:04.039Z,1.90
2023-05-05T03:59:31.834Z,1.50
2023-05-05T04:01:59.484Z,1.90
2023-05-05T04:04:27.267Z,1.60
2023-05-05T04:06:55.280Z,1.90
2023-05-05T04:09:22.937Z,1.57
2023-05-05T04:11:50.587Z,1.60
2023-05-05T04:14:19.753Z,1.60
2023-05-05T04:16:47.408Z,1.80
2023-05-05T04:19:15.314Z,1.83
2023-05-05T04:21:43.758Z,1.50
2023-05-05T04:24:12.036Z,1.80
2023-05-05T04:26:39.815Z,1.73
2023-05-05T04:29:09.420Z,1.60
2023-05-05T04:31:38.533Z,1.60
2023-05-05T04:34:06.224Z,2.00
2023-05-05T04:36:34.545Z,1.70
2023-05-05T04:39:02.339Z,1.70
2023-05-05T04:41:30.274Z,1.70
2023-05-05T04:43:58.633Z,1.60
2023-05-05T04:46:27.205Z,1.50
2023-05-05T04:48:56.672Z,1.73
2023-05-05T04:51:24.864Z,1.80
2023-05-05T04:53:52.936Z,1.63
2023-05-05T04:56:20.680Z,1.80
2023-05-05T04:58:48.325Z,1.67
2023-05-05T05:01:16.224Z,1.80
2023-05-05T05:03:44.041Z,2.10
2023-05-05T05:06:13.090Z,1.70
2023-05-05T05:08:40.727Z,1.70
2023-05-05T05:11:08.375Z,2.10
2023-05-05T05:13:35.979Z,1.90
2023-05-05T05:16:03.830Z,1.60
2023-05-05T05:18:31.532Z,2.10
2023-05-05T05:20:59.389Z,2.30
2023-05-05T05:23:28.381Z,2.00
2023-05-05T05:25:56.327Z,2.47
2023-05-05T05:28:24.452Z,2.10
2023-05-05T05:30:56.914Z,2.40
2023-05-05T05:33:24.799Z,2.40
2023-05-05T05:35:54.079Z,2.07
2023-05-05T05:38:22.610Z,1.80
2023-05-05T05:40:55.202Z,1.83
2023-05-05T05:43:24.022Z,1.80
2023-05-05T05:45:52.011Z,1.77
2023-05-05T05:48:21.451Z,2.13
2023-05-05T05:50:49.248Z,2.20
2023-05-05T05:53:17.943Z,2.07
2023-05-05T05:55:47.131Z,1.83
2023-05-05T05:58:17.187Z,2.27
2023-05-05T06:00:45.284Z,1.90
2023-05-05T06:03:13.821Z,2.07
2023-05-05T06:05:42.632Z,2.13
2023-05-05T06:08:11.053Z,2.30
2023-05-05T06:10:43.469Z,2.20
2023-05-05T06:13:17.959Z,2.10
2023-05-05T06:15:49.046Z,2.00
2023-05-05T06:18:17.596Z,2.30
2023-05-05T06:20:45.458Z,2.20
2023-05-05T06:23:15.685Z,2.27
2023-05-05T06:25:48.680Z,2.30
2023-05-05T06:28:18.652Z,3.30
2023-05-05T06:30:46.428Z,3.53
2023-05-05T06:33:14.162Z,3.90
2023-05-05T06:35:42.034Z,4.57
2023-05-05T06:38:09.760Z,3.90
2023-05-05T06:40:37.457Z,3.83
2023-05-05T06:43:05.348Z,4.10
2023-05-05T06:45:38.863Z,4.80
2023-05-05T06:48:06.697Z,4.07
2023-05-05T06:50:34.428Z,3.97
2023-05-05T06:53:02.296Z,3.23
2023-05-05T06:55:30.080Z,3.80
2023-05-05T06:57:57.721Z,3.43
2023-05-05T07:00:25.680Z,3.47
2023-05-05T07:02:54.794Z,3.40
2023-05-05T07:05:22.595Z,3.50
2023-05-05T07:07:54.021Z,3.50
2023-05-05T07:10:22.948Z,3.17
2023-05-05T07:12:51.608Z,3.63
2023-05-05T07:15:28.733Z,3.83
2023-05-05T07:17:58.746Z,4.10
2023-05-05T07:20:27.025Z,3.80
2023-05-05T07:22:54.809Z,3.70
2023-05-05T07:25:22.776Z,3.40
2023-05-05T07:27:50.686Z,3.50
2023-05-05T07:30:19.315Z,3.10
2023-05-05T07:32:47.806Z,3.60
2023-05-05T07:35:17.014Z,3.20
2023-05-05T07:37:45.480Z,3.27
2023-05-05T07:40:13.698Z,3.17
2023-05-05T07:42:41.427Z,4.20
2023-05-05T07:45:09.726Z,3.50
2023-05-05T07:47:37.570Z,4.13
2023-05-05T07:50:06.247Z,3.73
2023-05-05T07:52:46.587Z,3.80
2023-05-05T07:55:19.445Z,3.20
2023-05-05T07:57:49.652Z,3.73
2023-05-05T08:00:19.397Z,3.90
2023-05-05T08:02:47.949Z,3.93
2023-05-05T08:05:16.528Z,3.80
2023-05-05T08:07:45.675Z,3.40
2023-05-05T08:10:13.594Z,3.70
2023-05-05T08:12:42.146Z,3.50
2023-05-05T08:18:58.332Z,3.70
2023-05-05T08:21:27.741Z,4.00
2023-05-05T08:23:55.562Z,4.10
2023-05-05T08:26:23.567Z,4.00
2023-05-05T08:28:55.081Z,3.67
2023-05-05T08:31:23.019Z,4.10
2023-05-05T08:33:50.832Z,3.80
2023-05-05T08:36:20.017Z,3.70
2023-05-05T08:38:47.805Z,3.70
2023-05-05T08:41:18.654Z,4.40
2023-05-05T08:43:47.619Z,3.50
2023-05-05T08:46:15.485Z,3.10
2023-05-05T08:48:44.809Z,3.27
2023-05-05T08:51:18.103Z,3.77
2023-05-05T08:53:57.493Z,3.67
2023-05-05T08:56:28.222Z,3.33
2023-05-05T08:58:57.727Z,3.03
2023-05-05T09:01:25.778Z,3.17
2023-05-05T09:03:54.547Z,2.97
2023-05-05T09:06:23.567Z,3.17
2023-05-05T09:08:52.949Z,2.53
2023-05-05T09:11:21.579Z,3.40
2023-05-05T09:13:49.818Z,2.90
2023-05-05T09:16:17.632Z,3.10
2023-05-05T09:18:45.875Z,3.07
2023-05-05T09:21:24.726Z,3.23
2023-05-05T09:24:08.899Z,3.37
2023-05-05T09:26:38.540Z,3.07
2023-05-05T09:29:06.806Z,2.90
2023-05-05T09:31:36.362Z,3.10
2023-05-05T09:34:15.572Z,2.70
2023-05-05T09:36:48.907Z,2.67
2023-05-05T09:39:20.592Z,2.67
2023-05-05T09:41:48.383Z,3.03
2023-05-05T09:44:17.095Z,3.10
2023-05-05T09:46:52.390Z,2.77
2023-05-05T09:49:25.616Z,2.87
2023-05-05T09:51:54.374Z,2.60
2023-05-05T09:54:28.626Z,3.17
2023-05-05T09:56:57.236Z,2.93
2023-05-05T09:59:25.684Z,2.90
2023-05-05T10:01:53.511Z,3.00
2023-05-05T10:04:26.182Z,2.63
2023-05-05T10:06:54.002Z,3.03
2023-05-05T10:09:21.959Z,2.93
2023-05-05T10:11:51.546Z,2.83
2023-05-05T10:14:20.172Z,3.17
2023-05-05T10:16:52.491Z,2.73
2023-05-05T10:19:22.670Z,3.40
2023-05-05T10:21:52.558Z,2.63
2023-05-05T10:24:35.317Z,2.70
2023-05-05T10:27:14.088Z,2.47
2023-05-05T10:29:53.421Z,2.77
2023-05-05T10:32:51.928Z,2.50
2023-05-05T10:35:18.092Z,3.10
2023-05-05T10:37:46.720Z,2.67
2023-05-05T10:40:15.005Z,3.10
2023-05-05T10:42:44.411Z,2.50
2023-05-05T10:45:12.382Z,3.20
2023-05-05T10:47:40.920Z,2.90
2023-05-05T10:50:17.371Z,3.20
2023-05-05T10:52:53.256Z,2.77
2023-05-05T10:55:33.940Z,2.53
2023-05-05T10:58:03.009Z,2.53
2023-05-05T11:00:52.277Z,2.47
2023-05-05T11:03:21.416Z,2.60
2023-05-05T11:06:09.500Z,3.03
2023-05-05T11:08:39.224Z,2.80
2023-05-05T11:11:07.558Z,2.37
2023-05-05T11:13:37.219Z,2.40
2023-05-05T11:16:06.013Z,2.40
2023-05-05T11:18:39.431Z,2.50
2023-05-05T11:21:17.873Z,2.60
2023-05-05T11:23:47.795Z,2.85
2023-05-05T11:26:16.289Z,2.53
2023-05-05T11:29:03.391Z,2.30
2023-05-05T11:31:32.212Z,2.10
2023-05-05T11:34:26.140Z,2.17
2023-05-05T11:36:58.126Z,2.50
2023-05-05T11:39:37.045Z,2.25
2023-05-05T11:42:26.525Z,2.23
2023-05-05T11:44:55.979Z,2.10
2023-05-05T11:47:33.573Z,2.28
2023-05-05T11:50:18.547Z,2.47
2023-05-05T11:52:46.753Z,2.13
2023-05-05T11:55:21.156Z,2.28
2023-05-05T11:57:49.114Z,1.87
2023-05-05T12:00:19.402Z,2.30
2023-05-05T12:02:47.410Z,1.95
2023-05-05T12:05:21.090Z,2.37
2023-05-05T12:07:49.017Z,2.50
2023-05-05T12:10:23.904Z,2.20
2023-05-05T12:12:55.343Z,2.13
2023-05-05T12:15:32.207Z,2.23
2023-05-05T12:18:02.396Z,2.20
2023-05-05T12:20:32.446Z,2.20
2023-05-05T12:23:04.849Z,2.00
2023-05-05T12:25:36.843Z,2.00
2023-05-05T12:28:05.476Z,1.90
2023-05-05T12:30:34.974Z,2.20
2023-05-05T12:33:04.185Z,2.13
2023-05-05T12:35:32.581Z,2.03
2023-05-05T12:38:00.480Z,1.97
2023-05-05T12:40:44.690Z,2.10
2023-05-05T12:43:28.904Z,2.00
2023-05-05T12:46:09.214Z,2.40
2023-05-05T12:48:38.981Z,2.30
2023-05-05T12:51:14.925Z,1.87
2023-05-05T12:53:42.964Z,1.80
2023-05-05T12:56:33.555Z,2.10
2023-05-05T12:59:03.999Z,2.20
2023-05-05T13:01:33.539Z,2.00
2023-05-05T13:04:09.695Z,2.13
2023-05-05T13:06:37.989Z,2.13
2023-05-05T13:09:06.717Z,2.00
2023-05-05T13:11:38.235Z,2.10
2023-05-05T13:14:07.726Z,1.87
2023-05-05T13:16:37.078Z,1.70
2023-05-05T13:19:04.826Z,1.83
2023-05-05T13:21:32.754Z,2.03
2023-05-05T13:24:16.219Z,2.30
2023-05-05T13:26:48.465Z,2.43
2023-05-05T13:29:16.487Z,2.00
2023-05-05T13:31:45.640Z,1.77
2023-05-05T13:34:13.400Z,1.90
2023-05-05T13:36:41.121Z,1.77
2023-05-05T13:39:08.961Z,1.93
2023-05-05T13:41:36.803Z,1.90
2023-05-05T13:44:04.937Z,1.90
2023-05-05T13:46:32.967Z,1.90
2023-05-05T13:49:02.424Z,1.93
2023-05-05T13:51:30.545Z,1.80
2023-05-05T13:53:58.294Z,1.80
2023-05-05T13:56:27.682Z,1.63
2023-05-05T13:58:55.400Z,1.70
2023-05-05T14:01:23.164Z,1.60
2023-05-05T14:03:51.147Z,1.90
2023-05-05T14:06:20.332Z,1.40
2023-05-05T14:08:48.046Z,1.40
2023-05-05T14:11:18.037Z,1.47
2023-05-05T14:13:46.711Z,1.50
2023-05-05T14:16:14.834Z,1.40
2023-05-05T14:18:42.744Z,1.47
2023-05-05T14:21:10.644Z,1.73
2023-05-05T14:23:39.717Z,1.97
2023-05-05T14:26:08.998Z,1.97
2023-05-05T14:28:36.989Z,2.17
2023-05-05T14:31:04.953Z,2.33
2023-05-05T14:33:32.732Z,2.30
2023-05-05T14:36:00.501Z,2.17
2023-05-05T14:38:28.258Z,1.90
2023-05-05T14:40:57.643Z,2.40
2023-05-05T14:43:25.636Z,2.17
2023-05-05T14:45:53.472Z,2.17
2023-05-05T14:48:22.329Z,1.87
2023-05-05T14:50:50.319Z,2.00
2023-05-05T14:53:18.961Z,1.97
2023-05-05T14:55:46.812Z,1.80
2023-05-05T14:58:17.200Z,1.70
2023-05-05T15:00:45.138Z,1.70
2023-05-05T15:03:12.969Z,1.77
2023-05-05T15:05:40.886Z,1.70
2023-05-05T15:08:08.935Z,1.80
2023-05-05T15:10:36.753Z,1.97
2023-05-05T15:13:05.648Z,1.90
2023-05-05T15:15:34.948Z,1.90
2023-05-05T15:18:02.742Z,2.27
2023-05-05T15:20:31.260Z,1.90
2023-05-05T15:22:59.075Z,2.30
2023-05-05T15:25:26.904Z,1.97
2023-05-05T15:27:54.718Z,1.87
2023-05-05T15:30:22.551Z,1.60
2023-05-05T15:32:52.006Z,1.90
2023-05-05T15:35:20.174Z,1.80
2023-05-05T15:37:48.053Z,2.17
2023-05-05T15:40:15.936Z,2.10
2023-05-05T15:42:43.924Z,2.33
2023-05-05T15:45:14.914Z,2.30
2023-05-05T15:47:42.699Z,2.20
2023-05-05T15:50:12.204Z,2.50
2023-05-05T15:52:40.052Z,1.83
2023-05-05T15:55:09.419Z,2.27
2023-05-05T15:57:39.708Z,2.00
2023-05-05T16:00:08.845Z,1.90
2023-05-05T16:02:38.238Z,2.40
2023-05-05T16:05:07.271Z,2.00
2023-05-05T16:07:36.551Z,1.73
2023-05-05T16:10:04.727Z,2.00
2023-05-05T16:12:32.587Z,2.00
2023-05-05T16:15:00.432Z,1.93
2023-05-05T16:17:28.222Z,1.70
2023-05-05T16:19:56.063Z,1.80
2023-05-05T16:22:23.821Z,1.73
2023-05-05T16:24:52.992Z,1.80
2023-05-05T16:27:20.712Z,1.77
2023-05-05T16:29:48.484Z,1.60
2023-05-05T16:32:16.248Z,1.67
2023-05-05T16:34:44.045Z,1.90
2023-05-05T16:37:12.712Z,1.93
2023-05-05T16:39:41.251Z,2.13
2023-05-05T16:42:10.377Z,2.23
2023-05-05T16:44:38.144Z,2.00
2023-05-05T16:47:05.928Z,2.13
2023-05-05T16:49:33.758Z,1.90
2023-05-05T16:52:01.590Z,2.03
2023-05-05T16:54:29.574Z,2.10
2023-05-05T16:56:58.229Z,2.07
2023-05-05T16:59:27.861Z,2.23
2023-05-05T17:01:57.800Z,2.10
2023-05-05T17:04:26.147Z,2.00
2023-05-05T17:06:54.991Z,1.90
2023-05-05T17:09:24.861Z,2.10
2023-05-05T17:11:52.752Z,1.87
2023-05-05T17:14:20.749Z,2.30
2023-05-05T17:16:49.910Z,2.37
2023-05-05T17:19:17.733Z,2.27
2023-05-05T17:21:45.672Z,2.00
2023-05-05T17:24:13.588Z,1.90
2023-05-05T17:26:41.621Z,1.90
2023-05-05T17:29:11.577Z,2.10
2023-05-05T17:31:40.627Z,1.70
2023-05-05T17:34:09.793Z,1.80
2023-05-05T17:36:37.680Z,2.17
2023-05-05T17:39:05.866Z,1.87
2023-05-05T17:41:33.678Z,1.90
2023-05-05T17:44:01.454Z,2.07
2023-05-05T17:46:29.383Z,2.00
2023-05-05T17:48:57.293Z,1.70
2023-05-05T17:51:27.423Z,1.50
2023-05-05T17:53:55.136Z,1.60
2023-05-05T17:56:22.922Z,1.60
2023-05-05T17:58:50.717Z,1.60
2023-05-05T18:01:22.293Z,1.60
2023-05-05T18:03:50.380Z,1.43
2023-05-05T18:06:18.287Z,2.00
2023-05-05T18:08:47.643Z,2.20
2023-05-05T18:11:15.429Z,2.40
2023-05-05T18:13:43.725Z,2.30
2023-05-05T18:16:11.461Z,2.20
2023-05-05T18:18:40.570Z,2.30
2023-05-05T18:21:12.296Z,2.73
2023-05-05T18:23:40.378Z,4.27
2023-05-05T18:26:10.029Z,4.00
2023-05-05T18:28:38.108Z,3.57
2023-05-05T18:31:06.250Z,3.17
2023-05-05T18:33:34.135Z,2.90
2023-05-05T18:36:03.408Z,5.63
2023-05-05T18:38:32.629Z,5.07
2023-05-05T18:41:00.410Z,4.10
2023-05-05T18:43:29.520Z,3.33
2023-05-05T18:45:57.270Z,3.77
2023-05-05T18:48:25.060Z,4.80
2023-05-05T18:50:52.944Z,4.57
2023-05-05T18:53:20.832Z,6.60
2023-05-05T18:55:49.575Z,6.17
2023-05-05T18:58:17.652Z,4.63
2023-05-05T19:00:46.757Z,4.33
2023-05-05T19:03:14.489Z,3.60
2023-05-05T19:05:42.220Z,3.90
2023-05-05T19:08:10.051Z,3.20
2023-05-05T19:10:37.935Z,3.00
2023-05-05T19:13:06.090Z,3.10
2023-05-05T19:15:34.349Z,2.60
2023-05-05T19:18:05.674Z,2.53
2023-05-05T19:20:33.568Z,2.57
2023-05-05T19:23:03.858Z,2.37
2023-05-05T19:25:31.965Z,2.07
2023-05-05T19:27:59.724Z,2.10
2023-05-05T19:30:27.690Z,2.17
2023-05-05T19:32:55.600Z,2.20
2023-05-05T19:35:24.912Z,2.43
2023-05-05T19:37:52.761Z,2.40
2023-05-05T19:40:20.755Z,2.57
2023-05-05T19:42:48.617Z,2.37
2023-05-05T19:45:16.743Z,2.23
2023-05-05T19:47:46.170Z,2.50
2023-05-05T19:50:15.373Z,2.27
2023-05-05T19:52:44.544Z,2.43
2023-05-05T19:55:13.239Z,2.20
2023-05-05T19:57:41.735Z,2.20
2023-05-05T20:00:10.962Z,2.40
2023-05-05T20:02:39.120Z,2.57
2023-05-05T20:05:07.814Z,2.20
2023-05-05T20:07:35.815Z,2.40
2023-05-05T20:10:05.521Z,2.23
2023-05-05T20:12:33.338Z,2.20
2023-05-05T20:15:01.346Z,2.30
2023-05-05T20:17:29.147Z,2.23
2023-05-05T20:19:57.695Z,2.03
2023-05-05T20:22:26.533Z,2.20
2023-05-05T20:24:54.427Z,2.20
2023-05-05T20:27:24.520Z,1.87
2023-05-05T20:29:53.857Z,2.17
2023-05-05T20:32:21.651Z,2.20
2023-05-05T20:34:49.443Z,2.00
2023-05-05T20:37:17.271Z,1.93
2023-05-05T20:39:45.113Z,1.90
2023-05-05T20:42:12.876Z,2.00
2023-05-05T20:44:42.165Z,2.13
2023-05-05T20:47:09.981Z,1.93
2023-05-05T20:49:37.842Z,1.87
2023-05-05T20:52:06.165Z,1.70
2023-05-05T20:54:34.572Z,1.70
2023-05-05T20:57:03.093Z,1.80
2023-05-05T20:59:30.885Z,1.90
2023-05-05T21:02:00.051Z,2.03
2023-05-05T21:04:27.909Z,1.90
2023-05-05T21:06:55.871Z,2.00
2023-05-05T21:09:24.451Z,1.90
2023-05-05T21:11:52.628Z,1.80
2023-05-05T21:14:20.521Z,1.93
2023-05-05T21:16:48.274Z,1.80
2023-05-05T21:19:17.570Z,1.87
2023-05-05T21:21:45.716Z,1.80
2023-05-05T21:24:13.927Z,1.70
2023-05-05T21:26:43.480Z,1.90
2023-05-05T21:29:11.485Z,2.13
2023-05-05T21:31:39.492Z,2.00
2023-05-05T21:34:07.267Z,1.60
2023-05-05T21:36:36.827Z,2.10
2023-05-05T21:39:04.678Z,2.20
2023-05-05T21:41:32.422Z,2.50
2023-05-05T21:44:00.255Z,2.10
2023-05-05T21:46:28.043Z,2.43
2023-05-05T21:48:55.821Z,2.40
2023-05-05T21:51:23.674Z,2.40
2023-05-05T21:53:52.774Z,2.67
2023-05-05T21:56:20.503Z,2.87
2023-05-05T21:58:48.213Z,2.90
2023-05-05T22:01:15.957Z,3.00
2023-05-05T22:03:43.917Z,3.53
2023-05-05T22:06:12.394Z,3.30
2023-05-05T22:08:40.117Z,2.97
2023-05-05T22:11:09.324Z,2.70
2023-05-05T22:13:37.577Z,2.80
2023-05-05T22:16:05.576Z,2.60
2023-05-05T22:18:33.412Z,2.67
2023-05-05T22:21:01.273Z,2.67
2023-05-05T22:23:29.782Z,2.67
2023-05-05T22:25:57.932Z,2.40
2023-05-05T22:28:27.752Z,2.47
2023-05-05T22:30:55.515Z,2.60
2023-05-05T22:33:23.219Z,2.93
2023-05-05T22:35:52.060Z,3.30
2023-05-05T22:38:19.885Z,3.30
2023-05-05T22:40:48.131Z,3.00
2023-05-05T22:43:16.273Z,3.00
2023-05-05T22:45:45.638Z,2.83
2023-05-05T22:48:13.531Z,2.90
2023-05-05T22:50:41.400Z,2.93
2023-05-05T22:53:09.157Z,2.97
2023-05-05T22:55:36.932Z,2.57
2023-05-05T22:58:04.671Z,2.67
2023-05-05T23:00:32.516Z,2.67
2023-05-05T23:03:01.668Z,2.57
2023-05-05T23:05:29.472Z,2.50
2023-05-05T23:07:59.965Z,2.80
2023-05-05T23:10:28.014Z,2.60
2023-05-05T23:12:56.062Z,2.57
2023-05-05T23:15:24.982Z,2.77
2023-05-05T23:17:52.861Z,2.43
2023-05-05T23:20:22.304Z,2.47
2023-05-05T23:22:50.187Z,2.73
2023-05-05T23:25:18.257Z,2.20
2023-05-05T23:27:46.012Z,2.50
2023-05-05T23:30:14.644Z,2.23
2023-05-05T23:32:42.763Z,2.03
2023-05-05T23:35:11.183Z,2.20
2023-05-05T23:37:40.584Z,2.27
2023-05-05T23:40:09.715Z,2.20
2023-05-05T23:42:37.883Z,2.63
2023-05-05T23:45:06.225Z,2.63
2023-05-05T23:47:34.049Z,2.27
2023-05-05T23:50:02.044Z,2.20
2023-05-05T23:52:29.857Z,2.20
2023-05-05T23:54:59.178Z,2.20
2023-05-05T23:57:27.031Z,1.93
2023-05-05T23:59:54.826Z,2.00
